Horse Springs, New Mexico
Current Conditions -  °F | °C
As of 7:53 PM on Sunday 23 Nov 2014 (Local Time) from KTCS Reporting Station
Clear Clear  
Wind Chill: 36°   Ceiling: Unl
Heat Index: 44°   Visibility: 10mi
Dew Point:   Wind: 17mph
Humidity: 16%   Direction: 310°NW
Pressure: 30.04"   Gusts: 29mph
Location:  33.8594°N, 108.076°W
Report Text: KTCS 240253Z AUTO 31015G25KT 10SM CLR 07/M18 A3004 RMK AO2 SLP146 T00671178 51024 TSNO
Loading
Personal Weather Stations






























Interactive Weather Map New forecast layout! Learn more

10-Day Weather Forecast

Advertisements
Track Severe Weather on mobile